Time;durP1;ratioP1;P1;durP2;ratioP2;P2;SDS_P1;SDS_P2;PMS_P1;PMS_P2;Temp;Humidity;BMP_temperature;BMP_pressure;BME280_temperature;BME280_humidity;BME280_pressure;Samples;Min_cycle;Max_cycle;Signal;HPM_P1;HPM_P2
2021/01/19 00:01:08;;;;;;;2.67;1.80;;;24.00;27.40;;;;;;5054200;28;20401;-59
2021/01/19 00:03:35;;;;;;;2.50;1.80;;;24.00;27.30;;;;;;5052793;28;20464;-73
2021/01/19 00:06:03;;;;;;;1.90;1.60;;;24.00;27.30;;;;;;5053973;28;20459;-73
2021/01/19 00:08:31;;;;;;;1.90;1.60;;;24.00;27.30;;;;;;5053106;28;20477;-64
2021/01/19 00:10:57;;;;;;;1.90;1.60;;;23.90;27.10;;;;;;5054101;28;20401;-73
2021/01/19 00:13:22;;;;;;;2.15;1.60;;;23.90;27.30;;;;;;5053837;28;20434;-71
2021/01/19 00:15:52;;;;;;;1.97;1.50;;;23.90;27.30;;;;;;5053283;28;20430;-69
2021/01/19 00:18:18;;;;;;;2.20;1.40;;;23.90;27.30;;;;;;5065577;28;20910;-60
2021/01/19 00:20:43;;;;;;;1.93;1.40;;;23.90;27.30;;;;;;5052007;28;20479;-73
2021/01/19 00:23:12;;;;;;;1.70;1.38;;;23.90;27.20;;;;;;5052354;28;20405;-70
2021/01/19 00:25:41;;;;;;;1.70;1.30;;;23.90;27.40;;;;;;5049600;28;20938;-70
2021/01/19 00:28:08;;;;;;;1.67;1.45;;;23.80;27.30;;;;;;5052905;28;20409;-70
2021/01/19 00:30:38;;;;;;;1.70;1.30;;;23.80;27.20;;;;;;5052913;28;20386;-69
2021/01/19 00:33:04;;;;;;;1.98;1.40;;;23.70;27.20;;;;;;5053417;28;20392;-73
2021/01/19 00:35:30;;;;;;;2.30;1.33;;;23.70;27.40;;;;;;5052397;28;20393;-71
2021/01/19 00:37:59;;;;;;;1.75;1.20;;;23.70;27.50;;;;;;5052189;28;20738;-71
2021/01/19 00:40:26;;;;;;;1.80;1.33;;;23.70;27.70;;;;;;5051289;28;20425;-73
2021/01/19 00:42:51;;;;;;;1.67;1.17;;;23.70;28.00;;;;;;5049413;28;20753;-68
2021/01/19 00:45:17;;;;;;;2.03;1.23;;;23.70;27.80;;;;;;5052215;28;20389;-73
2021/01/19 00:47:43;;;;;;;1.98;1.00;;;23.70;27.90;;;;;;5052074;28;20392;-73
2021/01/19 00:50:09;;;;;;;1.65;1.08;;;23.70;28.10;;;;;;5052171;28;20399;-73
2021/01/19 00:52:36;;;;;;;1.55;1.10;;;23.60;28.00;;;;;;5051537;28;20377;-73
2021/01/19 00:55:01;;;;;;;1.70;1.13;;;23.50;27.90;;;;;;5067817;28;20500;-73
2021/01/19 00:57:27;;;;;;;1.58;1.10;;;23.50;27.60;;;;;;5051936;28;20940;-74
2021/01/19 00:59:53;;;;;;;1.40;1.10;;;23.40;27.80;;;;;;5052061;28;20421;-74
2021/01/19 01:02:18;;;;;;;2.25;1.15;;;23.40;27.80;;;;;;5052741;28;20389;-74
2021/01/19 01:04:44;;;;;;;3.23;1.43;;;23.30;27.80;;;;;;5051111;28;20916;-74
2021/01/19 01:07:09;;;;;;;2.25;1.00;;;23.30;28.00;;;;;;5053027;28;20432;-74
2021/01/19 01:09:37;;;;;;;2.33;1.10;;;23.20;28.00;;;;;;5052395;28;20436;-72
2021/01/19 01:12:06;;;;;;;1.50;1.00;;;23.30;28.10;;;;;;5067903;28;20385;-74
2021/01/19 01:14:33;;;;;;;1.48;0.90;;;23.20;28.00;;;;;;5052114;28;20400;-73
2021/01/19 01:16:58;;;;;;;1.92;1.10;;;23.10;27.70;;;;;;5052594;28;20409;-62
2021/01/19 01:19:24;;;;;;;1.40;1.00;;;23.10;27.90;;;;;;5052581;28;20441;-60
2021/01/19 01:21:50;;;;;;;2.05;0.85;;;23.10;27.90;;;;;;5052435;28;20440;-73
2021/01/19 01:24:16;;;;;;;1.50;0.90;;;23.00;27.90;;;;;;5052610;28;20413;-71
2021/01/19 01:26:41;;;;;;;1.25;0.90;;;23.00;27.90;;;;;;5051878;28;20746;-73
2021/01/19 01:29:07;;;;;;;1.67;1.07;;;23.00;27.90;;;;;;5052399;28;20400;-73
2021/01/19 01:31:34;;;;;;;1.40;1.00;;;22.90;27.90;;;;;;5052419;28;20420;-70
2021/01/19 01:33:59;;;;;;;1.50;1.00;;;22.90;28.00;;;;;;5052060;28;20405;-74
2021/01/19 01:36:25;;;;;;;1.23;0.90;;;22.90;27.90;;;;;;5067464;28;20378;-73
2021/01/19 01:38:51;;;;;;;2.10;1.00;;;22.80;27.80;;;;;;5052186;28;20405;-71
2021/01/19 01:41:21;;;;;;;1.70;0.90;;;22.80;28.40;;;;;;5051420;28;20912;-73
2021/01/19 01:43:49;;;;;;;1.40;1.00;;;22.80;27.90;;;;;;5051235;28;20405;-73
2021/01/19 01:46:16;;;;;;;1.38;1.00;;;22.80;27.90;;;;;;5052009;28;20390;-73
2021/01/19 01:48:44;;;;;;;1.40;1.00;;;22.70;27.90;;;;;;5051620;28;20891;-73
2021/01/19 01:51:11;;;;;;;1.67;1.08;;;22.70;27.80;;;;;;5051932;28;20484;-72
2021/01/19 01:53:38;;;;;;;1.40;0.90;;;22.70;27.80;;;;;;5046867;28;20435;-73
2021/01/19 01:56:06;;;;;;;1.50;0.90;;;22.70;27.90;;;;;;5031652;28;20453;-74
2021/01/19 01:58:32;;;;;;;1.20;0.90;;;22.60;27.90;;;;;;5031429;28;20469;-68
2021/01/19 02:00:58;;;;;;;1.45;1.00;;;22.60;27.90;;;;;;5031984;28;20405;-73
2021/01/19 02:03:24;;;;;;;1.30;0.80;;;22.50;27.80;;;;;;5031883;28;20423;-73
2021/01/19 02:05:50;;;;;;;1.80;0.90;;;22.50;27.80;;;;;;5031837;28;20426;-74
2021/01/19 02:08:24;;;;;;;1.10;0.75;;;22.50;27.90;;;;;;5032008;28;20438;-73
2021/01/19 02:11:20;;;;;;;1.20;0.80;;;22.50;27.90;;;;;;5031391;28;20391;-72
2021/01/19 02:14:19;;;;;;;1.10;0.82;;;22.40;27.90;;;;;;5031800;28;20391;-72
2021/01/19 02:17:05;;;;;;;1.37;0.90;;;22.40;27.90;;;;;;5031305;28;20467;-70
2021/01/19 02:20:02;;;;;;;1.50;0.80;;;22.40;27.90;;;;;;5031565;28;20417;-73
2021/01/19 02:22:51;;;;;;;1.20;0.90;;;22.30;27.80;;;;;;5031376;28;20379;-68
2021/01/19 02:26:03;;;;;;;1.60;0.90;;;22.30;27.80;;;;;;5031910;28;20387;-72
2021/01/19 02:28:42;;;;;;;1.02;0.80;;;22.30;27.90;;;;;;5031308;28;20391;-72
2021/01/19 02:31:46;;;;;;;1.17;0.90;;;22.30;28.00;;;;;;5046964;28;20546;-72
2021/01/19 02:34:16;;;;;;;1.13;0.80;;;22.20;27.80;;;;;;5031539;28;20399;-72
2021/01/19 02:36:46;;;;;;;1.50;0.80;;;22.10;27.90;;;;;;5031108;28;20394;-72
2021/01/19 02:39:18;;;;;;;1.30;0.73;;;22.10;27.90;;;;;;5031481;28;20418;-72
2021/01/19 02:41:46;;;;;;;1.20;0.75;;;22.10;27.90;;;;;;5031229;28;20388;-72
2021/01/19 02:44:25;;;;;;;1.20;0.73;;;22.00;27.90;;;;;;5031450;28;20806;-70
2021/01/19 02:46:54;;;;;;;1.30;0.70;;;22.00;27.90;;;;;;5029659;28;20934;-73
2021/01/19 02:49:21;;;;;;;1.50;0.80;;;22.00;27.90;;;;;;5046784;28;20410;-72
2021/01/19 02:51:49;;;;;;;1.20;0.70;;;22.00;27.90;;;;;;5031415;28;20391;-72
2021/01/19 02:54:16;;;;;;;1.17;0.75;;;22.00;28.00;;;;;;5031272;28;20386;-69
2021/01/19 02:56:51;;;;;;;1.15;0.60;;;22.00;28.00;;;;;;5030356;28;20395;-69
2021/01/19 02:59:38;;;;;;;1.08;0.73;;;21.90;28.40;;;;;;5031513;28;20408;-70
2021/01/19 03:02:13;;;;;;;1.00;0.77;;;21.90;28.00;;;;;;5031332;28;20466;-72
2021/01/19 03:04:41;;;;;;;1.05;0.70;;;21.80;28.00;;;;;;5030626;28;20456;-73
2021/01/19 03:07:08;;;;;;;1.20;0.90;;;21.80;28.00;;;;;;5032139;28;20787;-72
2021/01/19 03:09:39;;;;;;;2.15;0.75;;;21.80;28.00;;;;;;5034990;28;20393;-72
2021/01/19 03:12:12;;;;;;;1.35;0.82;;;21.80;28.10;;;;;;5034610;28;20398;-72
2021/01/19 03:14:38;;;;;;;1.10;0.57;;;21.80;28.00;;;;;;5034330;28;20441;-72
2021/01/19 03:17:08;;;;;;;1.15;0.70;;;21.70;28.00;;;;;;5050439;28;20394;-72
2021/01/19 03:19:37;;;;;;;1.08;0.68;;;21.70;28.10;;;;;;5034770;28;20426;-72
2021/01/19 03:22:03;;;;;;;1.23;0.60;;;21.70;28.10;;;;;;5034939;28;20478;-72
2021/01/19 03:24:29;;;;;;;1.35;0.70;;;21.60;28.10;;;;;;5034889;28;20474;-72
2021/01/19 03:26:55;;;;;;;1.45;0.70;;;21.60;28.10;;;;;;5034745;28;20900;-72
2021/01/19 03:29:20;;;;;;;1.20;0.70;;;21.60;28.10;;;;;;5034825;28;20394;-72
2021/01/19 03:31:46;;;;;;;0.90;0.67;;;21.60;28.10;;;;;;5034627;28;20383;-72
2021/01/19 03:34:12;;;;;;;1.02;0.68;;;21.50;28.30;;;;;;5034721;28;20411;-72
2021/01/19 03:36:38;;;;;;;0.90;0.70;;;21.50;28.00;;;;;;5034003;28;20465;-72
2021/01/19 03:39:04;;;;;;;1.10;0.70;;;21.50;28.10;;;;;;5034709;28;20447;-72
2021/01/19 03:41:29;;;;;;;1.13;0.70;;;21.50;28.10;;;;;;5034793;28;20398;-73
2021/01/19 03:43:55;;;;;;;1.17;0.77;;;21.40;28.00;;;;;;5034496;28;20781;-69
2021/01/19 03:46:21;;;;;;;1.70;0.70;;;21.40;28.50;;;;;;5034429;28;20406;-72
2021/01/19 03:48:46;;;;;;;1.23;0.77;;;21.30;28.00;;;;;;5032690;28;20487;-72
2021/01/19 03:51:12;;;;;;;0.93;0.60;;;21.30;28.00;;;;;;5034363;28;20486;-72
2021/01/19 03:53:38;;;;;;;1.10;0.60;;;21.30;28.50;;;;;;5034354;28;20406;-72
2021/01/19 03:56:04;;;;;;;1.10;0.70;;;21.30;28.10;;;;;;5034295;28;20743;-72
2021/01/19 03:58:29;;;;;;;1.00;0.70;;;21.30;28.10;;;;;;5034140;28;20423;-72
2021/01/19 04:00:55;;;;;;;1.10;0.70;;;21.30;28.10;;;;;;5033771;28;20435;-72
2021/01/19 04:03:20;;;;;;;0.90;0.60;;;21.20;28.10;;;;;;5034176;28;20864;-72
2021/01/19 04:05:46;;;;;;;1.20;0.60;;;21.20;28.10;;;;;;5034100;28;20400;-72
2021/01/19 04:08:12;;;;;;;1.13;0.70;;;21.10;28.70;;;;;;5034122;28;20383;-69
2021/01/19 04:10:37;;;;;;;1.17;0.70;;;21.20;28.70;;;;;;5032841;28;20755;-72
2021/01/19 04:13:03;;;;;;;1.60;0.80;;;21.10;28.80;;;;;;5033800;28;20394;-72
2021/01/19 04:15:28;;;;;;;1.00;0.60;;;21.10;28.90;;;;;;5033751;28;20434;-72
2021/01/19 04:17:54;;;;;;;1.30;0.70;;;21.20;29.00;;;;;;5033256;28;20394;-69
2021/01/19 04:20:20;;;;;;;1.20;0.70;;;21.10;29.20;;;;;;5033319;28;20487;-67
2021/01/19 04:22:45;;;;;;;1.30;0.80;;;21.10;29.40;;;;;;5033230;28;20388;-67
2021/01/19 04:25:11;;;;;;;1.40;0.60;;;21.10;29.30;;;;;;5048744;28;20446;-65
2021/01/19 04:27:37;;;;;;;2.00;0.73;;;21.10;29.40;;;;;;5033451;28;20383;-71
2021/01/19 04:30:07;;;;;;;2.70;0.90;;;21.10;29.80;;;;;;5033519;28;20391;-72
2021/01/19 04:32:36;;;;;;;1.80;0.75;;;21.10;29.80;;;;;;5032930;28;20473;-60
2021/01/19 04:35:04;;;;;;;1.73;0.70;;;21.10;29.80;;;;;;5033153;28;20911;-71
2021/01/19 04:37:30;;;;;;;1.60;0.70;;;21.00;29.40;;;;;;5033445;28;20399;-72
2021/01/19 04:39:55;;;;;;;2.40;0.70;;;21.00;29.70;;;;;;5033281;28;20417;-69
2021/01/19 04:42:21;;;;;;;2.73;0.80;;;21.00;29.80;;;;;;5033350;28;20391;-73
2021/01/19 04:44:49;;;;;;;2.72;0.70;;;21.00;29.70;;;;;;5032724;28;20482;-71
2021/01/19 04:47:16;;;;;;;1.50;0.60;;;21.00;29.90;;;;;;5033406;28;20467;-72
2021/01/19 04:49:44;;;;;;;2.22;0.80;;;21.00;30.10;;;;;;5033100;28;20956;-73
2021/01/19 04:52:14;;;;;;;1.52;0.60;;;21.00;30.00;;;;;;5032877;28;20383;-71
2021/01/19 04:55:04;;;;;;;2.15;0.63;;;21.00;30.10;;;;;;5032473;28;20473;-73
2021/01/19 04:57:35;;;;;;;2.00;0.60;;;21.00;30.40;;;;;;5033129;28;20379;-73
2021/01/19 05:00:13;;;;;;;1.42;0.70;;;20.90;29.90;;;;;;5033130;28;20469;-73
2021/01/19 05:02:54;;;;;;;0.80;0.50;;;20.90;29.80;;;;;;5032643;28;20725;-69
2021/01/19 05:05:37;;;;;;;1.35;0.70;;;21.00;29.70;;;;;;5032924;28;20371;-73
2021/01/19 05:08:18;;;;;;;1.60;0.68;;;21.00;29.60;;;;;;5032997;28;20395;-73
2021/01/19 05:11:00;;;;;;;2.08;0.52;;;21.10;29.90;;;;;;5032236;28;20387;-72
2021/01/19 05:13:41;;;;;;;2.63;0.70;;;21.10;29.50;;;;;;5032732;28;20414;-72
2021/01/19 05:16:11;;;;;;;1.90;0.70;;;21.20;29.70;;;;;;5032830;28;20482;-73
2021/01/19 05:18:39;;;;;;;1.83;0.70;;;21.20;29.70;;;;;;5032350;28;20878;-72
2021/01/19 05:21:06;;;;;;;1.85;0.60;;;21.30;29.40;;;;;;5032688;28;20410;-73
2021/01/19 05:23:31;;;;;;;2.77;0.60;;;21.30;29.50;;;;;;5032747;28;20466;-73
2021/01/19 05:25:59;;;;;;;1.63;0.70;;;21.20;29.40;;;;;;5031933;28;20951;-74
2021/01/19 05:28:48;;;;;;;2.40;0.70;;;21.30;29.30;;;;;;5032576;28;20371;-74
2021/01/19 05:31:24;;;;;;;2.72;0.70;;;21.30;28.90;;;;;;5031873;28;20441;-71
2021/01/19 05:33:52;;;;;;;2.88;0.70;;;21.30;29.10;;;;;;5047725;28;20439;-71
2021/01/19 05:36:20;;;;;;;1.50;0.60;;;21.30;29.30;;;;;;5032417;28;20399;-71
2021/01/19 05:38:49;;;;;;;1.98;0.60;;;21.40;29.50;;;;;;5047138;28;20839;-69
2021/01/19 05:41:25;;;;;;;1.50;0.60;;;21.40;29.60;;;;;;5032431;28;20871;-71
2021/01/19 05:43:55;;;;;;;1.23;0.53;;;21.30;29.30;;;;;;5032319;28;20398;-71
2021/01/19 05:46:28;;;;;;;2.33;0.70;;;21.40;29.30;;;;;;5032223;28;20756;-70
2021/01/19 05:49:01;;;;;;;2.25;0.60;;;21.40;29.10;;;;;;5031565;28;20386;-71
2021/01/19 05:51:28;;;;;;;2.90;0.70;;;21.40;29.70;;;;;;5032120;28;20871;-71
2021/01/19 05:53:56;;;;;;;2.42;0.60;;;21.40;29.50;;;;;;5032067;28;20398;-69
2021/01/19 05:56:22;;;;;;;4.90;0.73;;;21.40;29.20;;;;;;5032176;28;20402;-71
2021/01/19 05:58:51;;;;;;;2.13;0.60;;;21.40;29.20;;;;;;5031437;28;20391;-71
2021/01/19 06:01:34;;;;;;;2.72;0.60;;;21.40;29.10;;;;;;5039332;28;20433;-67
2021/01/19 06:04:02;;;;;;;2.03;0.50;;;21.40;28.90;;;;;;5050400;28;20392;-69
2021/01/19 06:06:29;;;;;;;1.60;0.40;;;21.40;28.90;;;;;;5051645;28;20945;-68
2021/01/19 06:09:05;;;;;;;2.70;0.88;;;21.40;28.90;;;;;;5051410;28;20401;-71
2021/01/19 06:11:31;;;;;;;2.40;0.90;;;21.40;28.90;;;;;;5031589;28;20812;-71
2021/01/19 06:13:57;;;;;;;2.17;0.60;;;21.40;28.90;;;;;;5031796;28;20466;-70
2021/01/19 06:16:25;;;;;;;2.70;0.60;;;21.40;28.80;;;;;;5031711;28;20384;-71
2021/01/19 06:18:50;;;;;;;2.10;0.60;;;21.40;28.70;;;;;;5031282;28;20417;-71
2021/01/19 06:21:45;;;;;;;2.22;0.60;;;21.40;28.60;;;;;;5031693;28;20391;-71
2021/01/19 06:24:11;;;;;;;1.73;0.70;;;21.40;28.60;;;;;;5031294;28;20399;-72
2021/01/19 06:26:41;;;;;;;1.77;0.60;;;21.40;28.50;;;;;;5031629;28;20898;-71
2021/01/19 06:29:06;;;;;;;2.70;0.60;;;21.40;28.50;;;;;;5030793;28;20470;-71
2021/01/19 06:31:33;;;;;;;1.95;0.60;;;21.30;28.30;;;;;;5041234;28;20480;-71
2021/01/19 06:34:01;;;;;;;2.13;0.60;;;21.30;28.30;;;;;;5050739;28;20406;-71
2021/01/19 06:36:35;;;;;;;1.45;0.50;;;21.30;28.20;;;;;;5050988;28;20389;-71
2021/01/19 06:39:02;;;;;;;1.08;0.70;;;21.30;28.20;;;;;;5050704;28;20417;-71
2021/01/19 06:41:37;;;;;;;1.90;0.60;;;21.30;28.20;;;;;;5054102;28;20906;-71
2021/01/19 06:44:08;;;;;;;1.70;0.70;;;21.30;28.20;;;;;;5058034;28;20389;-71
2021/01/19 06:46:43;;;;;;;3.00;0.60;;;21.30;28.20;;;;;;5057938;28;20389;-71
2021/01/19 06:49:14;;;;;;;1.80;0.63;;;21.30;28.20;;;;;;5057979;28;20837;-72
2021/01/19 06:51:48;;;;;;;1.90;0.77;;;21.30;28.10;;;;;;5057912;28;20389;-71
2021/01/19 06:54:18;;;;;;;2.63;0.70;;;21.30;28.10;;;;;;5048625;28;20431;-70
2021/01/19 06:56:54;;;;;;;1.20;0.50;;;21.20;28.60;;;;;;5056303;28;20389;-61
2021/01/19 06:59:31;;;;;;;1.38;0.60;;;21.30;28.80;;;;;;5055138;28;20417;-71
2021/01/19 07:01:57;;;;;;;2.33;0.70;;;21.30;28.90;;;;;;5055113;28;20853;-70
2021/01/19 07:04:26;;;;;;;2.30;0.60;;;21.20;28.80;;;;;;5057786;28;20903;-71
2021/01/19 07:07:00;;;;;;;2.05;0.60;;;21.20;28.80;;;;;;5057337;28;20497;-60
2021/01/19 07:09:47;;;;;;;1.30;0.60;;;21.20;28.70;;;;;;5057464;28;20397;-70
2021/01/19 07:12:17;;;;;;;1.08;0.60;;;21.20;28.40;;;;;;5057731;28;20396;-70
2021/01/19 07:14:58;;;;;;;3.20;0.70;;;21.20;28.40;;;;;;5057525;28;20438;-70
2021/01/19 07:17:44;;;;;;;1.60;0.60;;;21.20;28.30;;;;;;5057765;28;20397;-71
2021/01/19 07:20:13;;;;;;;1.75;0.60;;;21.20;28.60;;;;;;5057702;28;20420;-72
2021/01/19 07:23:01;;;;;;;1.92;0.70;;;21.20;28.60;;;;;;5057595;28;20464;-71
2021/01/19 07:25:27;;;;;;;1.60;0.60;;;21.20;28.70;;;;;;5056851;28;20946;-67
2021/01/19 07:27:55;;;;;;;1.33;0.60;;;21.20;28.90;;;;;;5055242;28;20401;-72
2021/01/19 07:30:22;;;;;;;2.70;0.70;;;21.20;28.90;;;;;;5056409;28;20871;-71
2021/01/19 07:32:52;;;;;;;1.08;0.60;;;21.20;28.80;;;;;;5056969;28;20382;-71
2021/01/19 07:35:23;;;;;;;0.90;0.50;;;21.20;29.40;;;;;;5057569;28;20761;-71
2021/01/19 07:37:56;;;;;;;1.00;0.60;;;21.20;29.00;;;;;;5057541;28;20915;-73
2021/01/19 07:40:22;;;;;;;1.30;0.70;;;21.20;28.90;;;;;;5056095;28;20421;-72
2021/01/19 07:42:48;;;;;;;1.00;0.60;;;21.20;29.00;;;;;;5056966;28;20388;-71
2021/01/19 07:45:14;;;;;;;1.20;0.70;;;21.20;29.00;;;;;;5057597;28;20391;-71
2021/01/19 07:47:44;;;;;;;1.63;0.70;;;21.20;28.90;;;;;;5057333;28;20385;-66
2021/01/19 07:50:14;;;;;;;1.23;0.70;;;21.10;28.90;;;;;;5057471;28;20512;-71
2021/01/19 07:52:42;;;;;;;1.83;0.60;;;21.10;28.90;;;;;;5055692;28;20416;-71
2021/01/19 07:55:22;;;;;;;1.00;0.60;;;21.10;28.80;;;;;;5053647;28;20389;-70
2021/01/19 07:57:52;;;;;;;1.60;0.60;;;21.10;28.80;;;;;;5054379;28;20385;-71
2021/01/19 08:00:28;;;;;;;1.00;0.60;;;21.10;28.80;;;;;;5054048;28;20428;-71
2021/01/19 08:03:03;;;;;;;1.70;0.70;;;21.10;28.70;;;;;;5053653;28;20385;-70
2021/01/19 08:05:30;;;;;;;1.20;0.60;;;21.10;28.70;;;;;;5053968;28;20389;-71
2021/01/19 08:07:57;;;;;;;1.07;0.57;;;21.10;28.80;;;;;;5054117;28;20464;-68
2021/01/19 08:10:29;;;;;;;1.55;0.70;;;21.10;28.80;;;;;;5054007;28;20874;-71
2021/01/19 08:12:57;;;;;;;1.20;0.60;;;21.10;28.90;;;;;;5053398;28;20464;-71
2021/01/19 08:15:33;;;;;;;1.43;0.90;;;21.10;29.40;;;;;;5053922;28;20430;-69
2021/01/19 08:18:01;;;;;;;1.58;0.73;;;21.10;29.00;;;;;;5053759;28;20473;-71
2021/01/19 08:20:34;;;;;;;1.63;0.65;;;21.10;28.90;;;;;;5053841;28;20409;-62
2021/01/19 08:23:09;;;;;;;0.90;0.57;;;21.10;29.00;;;;;;5053297;28;20389;-71
2021/01/19 08:25:35;;;;;;;1.10;0.70;;;21.10;28.90;;;;;;5053698;28;20390;-71
2021/01/19 08:28:01;;;;;;;1.35;0.80;;;21.10;28.90;;;;;;5052425;28;20397;-71
2021/01/19 08:30:27;;;;;;;1.13;0.60;;;21.10;28.90;;;;;;5053665;28;20392;-68
2021/01/19 08:32:56;;;;;;;1.00;0.63;;;21.10;28.90;;;;;;5052202;28;20966;-71
2021/01/19 08:35:27;;;;;;;1.33;0.63;;;21.10;28.90;;;;;;5053838;28;20404;-61
2021/01/19 08:37:58;;;;;;;1.15;0.60;;;21.10;28.90;;;;;;5053467;28;20390;-71
2021/01/19 08:40:28;;;;;;;1.00;0.70;;;21.10;28.90;;;;;;5053334;28;20421;-71
2021/01/19 08:42:55;;;;;;;1.10;0.70;;;21.10;29.00;;;;;;5052912;28;20389;-71
2021/01/19 08:45:28;;;;;;;1.00;0.60;;;21.10;28.90;;;;;;5050756;28;20788;-69
2021/01/19 08:47:57;;;;;;;1.20;0.70;;;21.10;28.70;;;;;;5052537;28;20386;-58
2021/01/19 08:50:28;;;;;;;1.20;0.70;;;21.10;28.90;;;;;;5043377;28;20488;-59
2021/01/19 08:52:54;;;;;;;1.15;0.65;;;21.20;28.90;;;;;;5052093;28;20385;-59
2021/01/19 08:55:22;;;;;;;1.25;0.70;;;21.20;28.90;;;;;;5053100;28;20390;-59
2021/01/19 08:57:59;;;;;;;1.05;0.70;;;21.20;28.60;;;;;;5053109;28;20434;-58
2021/01/19 09:00:30;;;;;;;1.13;0.70;;;21.20;28.80;;;;;;5052892;28;20421;-64
2021/01/19 09:02:57;;;;;;;1.10;0.70;;;21.30;28.50;;;;;;5052503;28;20472;-58
2021/01/19 09:05:24;;;;;;;1.27;0.68;;;21.30;28.50;;;;;;5051727;28;20782;-59
2021/01/19 09:07:49;;;;;;;1.45;0.70;;;21.30;28.50;;;;;;5052864;28;20397;-59
2021/01/19 09:10:23;;;;;;;1.73;0.73;;;21.40;28.50;;;;;;5052812;28;20392;-64
2021/01/19 09:12:49;;;;;;;0.90;0.60;;;21.40;28.60;;;;;;5052410;28;20393;-58
2021/01/19 09:15:15;;;;;;;1.40;0.77;;;21.40;28.60;;;;;;5052776;28;20475;-71
2021/01/19 09:17:41;;;;;;;1.17;0.70;;;21.50;28.50;;;;;;5052826;28;20423;-58
2021/01/19 09:20:08;;;;;;;0.80;0.60;;;21.50;28.60;;;;;;5052583;28;20818;-70
2021/01/19 09:22:35;;;;;;;0.90;0.70;;;21.60;28.50;;;;;;5052489;28;20742;-70
2021/01/19 09:25:01;;;;;;;0.77;0.50;;;21.60;28.50;;;;;;5052103;28;20394;-67
2021/01/19 09:27:26;;;;;;;1.00;0.70;;;21.70;28.40;;;;;;5052463;28;20388;-62
2021/01/19 09:30:04;;;;;;;1.02;0.63;;;21.70;28.40;;;;;;5052515;28;20821;-68
2021/01/19 09:32:30;;;;;;;0.90;0.63;;;21.70;28.20;;;;;;5052592;28;20377;-71
2021/01/19 09:34:58;;;;;;;1.50;0.77;;;21.70;28.00;;;;;;5049613;28;20414;-66
2021/01/19 09:37:25;;;;;;;1.13;0.73;;;21.80;27.90;;;;;;5052296;28;20377;-72
2021/01/19 09:39:51;;;;;;;0.93;0.70;;;21.80;28.00;;;;;;5052125;28;20401;-68
2021/01/19 09:42:18;;;;;;;1.10;0.70;;;21.80;28.10;;;;;;5052195;28;20400;-71
2021/01/19 09:44:44;;;;;;;1.02;0.70;;;21.80;28.00;;;;;;5052098;28;20412;-68
2021/01/19 09:47:12;;;;;;;1.35;0.70;;;21.80;28.10;;;;;;5051660;28;20873;-69
2021/01/19 09:49:40;;;;;;;0.90;0.70;;;21.80;28.00;;;;;;5051997;28;20385;-70
2021/01/19 09:52:10;;;;;;;1.25;0.80;;;21.80;28.50;;;;;;5052072;28;20390;-70
2021/01/19 09:54:36;;;;;;;1.30;0.80;;;21.90;28.00;;;;;;5051996;28;20449;-71
2021/01/19 09:57:02;;;;;;;1.00;0.60;;;21.90;28.20;;;;;;5051501;28;20455;-72
2021/01/19 09:59:30;;;;;;;1.08;0.75;;;21.90;28.20;;;;;;5051821;28;20504;-61
2021/01/19 10:02:01;;;;;;;1.05;0.60;;;21.90;28.10;;;;;;5049095;28;20393;-63
2021/01/19 10:04:27;;;;;;;1.30;0.70;;;21.90;28.10;;;;;;5051686;28;20424;-64
2021/01/19 10:07:08;;;;;;;1.00;0.68;;;21.90;28.20;;;;;;5051262;28;20947;-63
2021/01/19 10:09:35;;;;;;;1.10;0.70;;;21.90;28.00;;;;;;5052008;28;20396;-65
2021/01/19 10:12:02;;;;;;;1.00;0.70;;;21.90;27.90;;;;;;5051257;28;20385;-61
2021/01/19 10:14:36;;;;;;;1.08;0.65;;;21.90;27.80;;;;;;5051494;28;20442;-61
2021/01/19 10:17:02;;;;;;;0.90;0.60;;;22.00;27.90;;;;;;5050718;28;20472;-60
2021/01/19 10:19:29;;;;;;;0.98;0.70;;;22.00;27.80;;;;;;5051619;28;20484;-63
2021/01/19 10:22:03;;;;;;;0.90;0.70;;;22.00;27.80;;;;;;5050962;28;20510;-63
2021/01/19 10:24:29;;;;;;;1.10;0.70;;;22.00;27.70;;;;;;5051488;28;20409;-64
2021/01/19 10:27:10;;;;;;;1.37;0.70;;;22.00;27.70;;;;;;5051068;28;20973;-64
2021/01/19 10:29:39;;;;;;;1.05;0.70;;;22.00;27.80;;;;;;5051461;28;20428;-67
2021/01/19 10:32:08;;;;;;;1.33;0.77;;;22.00;27.80;;;;;;5051471;28;20389;-61
2021/01/19 10:34:34;;;;;;;1.30;0.70;;;22.00;27.80;;;;;;5050956;28;20445;-64
2021/01/19 10:37:01;;;;;;;1.33;0.75;;;22.00;27.80;;;;;;5049108;28;20421;-63
2021/01/19 10:39:27;;;;;;;1.27;0.80;;;22.00;27.70;;;;;;5051178;28;20942;-63
2021/01/19 10:41:55;;;;;;;1.00;0.70;;;22.00;27.80;;;;;;5051462;28;20393;-65
2021/01/19 10:44:23;;;;;;;1.15;0.70;;;22.10;27.80;;;;;;5051500;28;20426;-66
2021/01/19 10:46:57;;;;;;;0.90;0.60;;;22.10;28.10;;;;;;5051448;28;20397;-59
2021/01/19 10:49:27;;;;;;;1.20;0.85;;;22.10;28.20;;;;;;5051279;28;20442;-67
2021/01/19 10:51:53;;;;;;;1.30;0.70;;;22.10;28.00;;;;;;5051248;28;20848;-68
2021/01/19 10:54:21;;;;;;;1.27;0.70;;;22.10;28.00;;;;;;5051259;28;20539;-66
2021/01/19 10:57:02;;;;;;;1.10;0.70;;;22.10;28.00;;;;;;5051219;28;20715;-66
2021/01/19 10:59:27;;;;;;;0.70;0.60;;;22.10;27.90;;;;;;5051361;28;20425;-68
2021/01/19 11:01:53;;;;;;;1.00;0.60;;;22.10;27.90;;;;;;5051216;28;20758;-68
2021/01/19 11:04:19;;;;;;;0.87;0.60;;;22.10;27.80;;;;;;5051075;28;20895;-67
2021/01/19 11:06:45;;;;;;;1.10;0.65;;;22.10;27.80;;;;;;5051213;28;20389;-69
2021/01/19 11:09:10;;;;;;;1.13;0.68;;;22.20;27.90;;;;;;5050631;28;20401;-69
2021/01/19 11:11:36;;;;;;;1.13;0.77;;;22.10;27.80;;;;;;5051014;28;20804;-71
2021/01/19 11:14:04;;;;;;;1.00;0.70;;;22.20;27.90;;;;;;5051062;28;20878;-71
2021/01/19 11:16:37;;;;;;;1.13;0.68;;;22.20;27.80;;;;;;5050929;28;20392;-71
2021/01/19 11:19:04;;;;;;;1.03;0.67;;;22.20;27.90;;;;;;5050433;28;20518;-71
2021/01/19 11:21:31;;;;;;;1.10;0.60;;;22.20;27.90;;;;;;5050635;28;20440;-71
2021/01/19 11:23:58;;;;;;;1.13;0.70;;;22.20;27.90;;;;;;5051307;28;20378;-69
2021/01/19 11:26:24;;;;;;;0.80;0.60;;;22.20;27.80;;;;;;5050930;28;20397;-68
2021/01/19 11:28:50;;;;;;;1.10;0.60;;;22.30;27.90;;;;;;5053339;28;20389;-62
2021/01/19 11:31:24;;;;;;;1.00;0.67;;;22.30;27.80;;;;;;5054139;28;20876;-62
2021/01/19 11:33:49;;;;;;;1.00;0.60;;;22.30;27.80;;;;;;5054526;28;20401;-65
2021/01/19 11:36:26;;;;;;;1.20;0.60;;;22.30;27.70;;;;;;5053110;28;20401;-64
2021/01/19 11:38:54;;;;;;;0.90;0.57;;;22.30;27.70;;;;;;5052141;28;20416;-62
2021/01/19 11:41:23;;;;;;;1.50;0.60;;;22.30;27.80;;;;;;5054035;28;20488;-63
2021/01/19 11:43:49;;;;;;;1.30;0.60;;;22.30;27.70;;;;;;5054484;28;20424;-60
2021/01/19 11:46:20;;;;;;;1.58;0.70;;;22.30;27.80;;;;;;5054398;28;20429;-63
2021/01/19 11:48:47;;;;;;;0.90;0.60;;;22.30;27.80;;;;;;5053305;28;20390;-64
2021/01/19 11:51:22;;;;;;;1.05;0.70;;;22.30;27.80;;;;;;5053940;28;20389;-63
2021/01/19 11:53:53;;;;;;;0.90;0.60;;;22.40;27.80;;;;;;5054293;28;20432;-67
2021/01/19 11:56:19;;;;;;;1.00;0.70;;;22.40;27.80;;;;;;5054140;28;20386;-66
2021/01/19 11:58:46;;;;;;;1.30;0.70;;;22.40;27.70;;;;;;5054112;28;20397;-63
2021/01/19 12:01:21;;;;;;;0.80;0.50;;;22.40;27.80;;;;;;5053657;28;20386;-61
2021/01/19 12:03:47;;;;;;;1.17;0.60;;;22.40;27.70;;;;;;5052814;28;20890;-61
2021/01/19 12:06:16;;;;;;;1.30;0.80;;;22.40;27.70;;;;;;5054068;28;20389;-68
2021/01/19 12:08:46;;;;;;;1.00;0.65;;;22.40;27.80;;;;;;5053731;28;20382;-66
2021/01/19 12:11:12;;;;;;;1.10;0.70;;;22.40;27.60;;;;;;5053490;28;20769;-65
2021/01/19 12:13:38;;;;;;;1.27;0.80;;;22.50;27.80;;;;;;5053895;28;20385;-59
2021/01/19 12:16:05;;;;;;;1.80;0.70;;;22.40;27.70;;;;;;5052640;28;20408;-64
2021/01/19 12:18:30;;;;;;;0.85;0.60;;;22.50;27.80;;;;;;5053746;28;20385;-66
2021/01/19 12:20:56;;;;;;;1.08;0.60;;;22.50;27.70;;;;;;5053720;28;20826;-67
2021/01/19 12:23:23;;;;;;;1.17;0.60;;;22.40;27.60;;;;;;5053150;28;20937;-62
2021/01/19 12:25:49;;;;;;;0.90;0.60;;;22.40;27.70;;;;;;5053676;28;20396;-66
2021/01/19 12:28:15;;;;;;;0.90;0.55;;;22.40;27.70;;;;;;5053620;28;20739;-72
2021/01/19 12:30:40;;;;;;;1.10;0.70;;;22.50;27.70;;;;;;5053558;28;20385;-59
2021/01/19 12:33:06;;;;;;;1.33;0.60;;;22.40;27.70;;;;;;5052965;28;20408;-68
2021/01/19 12:35:32;;;;;;;0.98;0.60;;;22.50;27.80;;;;;;5053468;28;20405;-73
2021/01/19 12:37:57;;;;;;;0.80;0.60;;;22.50;27.70;;;;;;5053225;28;20381;-60
2021/01/19 12:40:23;;;;;;;1.10;0.70;;;22.40;27.80;;;;;;5052492;28;20417;-70
2021/01/19 12:42:49;;;;;;;0.90;0.60;;;22.40;27.70;;;;;;5053316;28;20388;-67
2021/01/19 12:45:16;;;;;;;0.90;0.60;;;22.40;27.60;;;;;;5052795;28;20490;-71
2021/01/19 12:47:42;;;;;;;0.95;0.55;;;22.50;27.80;;;;;;5053358;28;20404;-69
2021/01/19 12:50:08;;;;;;;1.35;0.60;;;22.40;27.80;;;;;;5053238;28;20390;-72
2021/01/19 12:52:34;;;;;;;0.98;0.60;;;22.50;27.80;;;;;;5053151;28;20394;-66
2021/01/19 12:54:59;;;;;;;0.93;0.60;;;22.40;27.80;;;;;;5052917;28;20919;-72
2021/01/19 12:57:25;;;;;;;1.45;0.70;;;22.50;27.70;;;;;;5053098;28;20377;-69
2021/01/19 12:59:51;;;;;;;0.97;0.63;;;22.50;27.90;;;;;;5045535;28;20417;-72